Time;durP1;ratioP1;P1;durP2;ratioP2;P2;SDS_P1;SDS_P2;PMS_P1;PMS_P2;Temp;Humidity;BMP_temperature;BMP_pressure;BME280_temperature;BME280_humidity;BME280_pressure;Samples;Min_cycle;Max_cycle;Signal;HPM_P1;HPM_P2
2022/12/03 00:01:57;;;;;;;44.57;22.23;;;-1.10;1.00;;;;;;10460363;28;20211;-83
2022/12/03 00:07:19;;;;;;;40.93;22.23;;;-1.10;96.50;;;;;;10487317;28;20192;-92
2022/12/03 00:12:40;;;;;;;40.37;21.33;;;-1.20;1.00;;;;;;10495140;28;20200;-88
2022/12/03 00:18:02;;;;;;;53.03;22.53;;;-1.30;99.90;;;;;;10476398;28;20228;-80
2022/12/03 00:23:24;;;;;;;37.17;21.23;;;-1.30;1.00;;;;;;10506894;28;20562;-81
2022/12/03 00:28:45;;;;;;;41.17;22.57;;;-1.30;7.70;;;;;;10446740;28;20484;-82
2022/12/03 00:34:07;;;;;;;52.10;24.97;;;-1.20;1.00;;;;;;10433547;28;20207;-84
2022/12/03 00:39:28;;;;;;;40.60;21.23;;;-1.20;7.30;;;;;;10434209;28;20230;-81
2022/12/03 00:44:49;;;;;;;42.00;22.30;;;-1.20;99.90;;;;;;10447581;28;20209;-87
2022/12/03 00:50:11;;;;;;;39.90;21.47;;;-1.30;1.00;;;;;;10447584;28;20199;-81
2022/12/03 00:55:32;;;;;;;39.80;21.60;;;-1.50;1.00;;;;;;10447185;28;20220;-80
2022/12/03 01:00:53;;;;;;;43.83;23.50;;;-1.40;1.00;;;;;;10447264;28;20258;-81
2022/12/03 01:06:15;;;;;;;39.23;20.87;;;-1.50;1.00;;;;;;10483267;28;20215;-86
2022/12/03 01:11:36;;;;;;;49.10;21.10;;;-1.40;77.30;;;;;;10475535;28;20200;-89
2022/12/03 01:16:57;;;;;;;43.97;21.80;;;-1.40;99.90;;;;;;10502875;28;20235;-85
2022/12/03 01:22:18;;;;;;;42.30;19.13;;;-1.40;99.90;;;;;;10474962;28;20311;-91
2022/12/03 01:27:40;;;;;;;33.93;19.17;;;-1.40;99.90;;;;;;10451005;28;20464;-90
2022/12/03 01:33:01;;;;;;;42.73;21.03;;;-1.60;99.90;;;;;;10447451;28;20257;-92
2022/12/03 01:38:23;;;;;;;34.57;19.30;;;-1.50;54.40;;;;;;10433753;28;20233;-90
2022/12/03 01:43:45;;;;;;;35.87;19.47;;;-1.50;19.00;;;;;;10435520;28;20200;-89
2022/12/03 01:49:08;;;;;;;35.83;18.87;;;-1.50;45.10;;;;;;10455487;28;20560;-92
2022/12/03 01:54:43;;;;;;;37.63;19.87;;;-1.60;1.00;;;;;;10459585;28;20216;-89
2022/12/03 02:00:05;;;;;;;39.53;20.33;;;-1.60;1.00;;;;;;10469015;28;20409;-92
2022/12/03 02:05:32;;;;;;;36.93;19.47;;;-1.50;99.90;;;;;;10470536;28;20495;-89
2022/12/03 02:10:54;;;;;;;39.40;20.23;;;-1.50;67.70;;;;;;10495821;28;20573;-92
2022/12/03 02:16:15;;;;;;;41.83;20.83;;;-1.50;78.10;;;;;;10512516;28;20287;-91
2022/12/03 02:22:02;;;;;;;37.40;22.40;;;-1.60;51.80;;;;;;10495499;28;20198;-87
2022/12/03 02:27:23;;;;;;;43.93;22.73;;;-1.60;99.90;;;;;;10313059;28;20206;-79
2022/12/03 02:32:45;;;;;;;42.93;21.57;;;-1.60;1.00;;;;;;10318555;28;20222;-80
2022/12/03 02:38:20;;;;;;;43.77;22.67;;;-1.60;99.90;;;;;;10324904;28;20236;-80
2022/12/03 02:43:41;;;;;;;52.27;27.60;;;-1.60;1.00;;;;;;10276002;28;20218;-88
2022/12/03 02:49:04;;;;;;;46.97;23.67;;;-1.70;1.00;;;;;;10305019;28;20215;-90
2022/12/03 02:54:25;;;;;;;51.80;25.60;;;-1.70;99.90;;;;;;10304916;28;20231;-80
2022/12/03 02:59:47;;;;;;;51.53;25.43;;;-1.80;1.00;;;;;;10311585;28;20309;-87
2022/12/03 03:05:10;;;;;;;51.43;24.67;;;-1.80;1.00;;;;;;10450437;28;20204;-90
2022/12/03 03:10:34;;;;;;;44.63;25.00;;;-1.80;1.00;;;;;;10510332;28;20236;-89
2022/12/03 03:15:55;;;;;;;50.90;25.87;;;-1.80;1.00;;;;;;10510211;28;20203;-87
2022/12/03 03:21:17;;;;;;;48.33;25.20;;;-1.90;1.00;;;;;;10508225;28;20494;-83
2022/12/03 03:26:39;;;;;;;47.37;23.77;;;-1.90;1.00;;;;;;10500300;28;20220;-82
2022/12/03 03:32:01;;;;;;;49.70;24.47;;;-2.10;1.00;;;;;;10468645;28;20222;-92
2022/12/03 03:37:23;;;;;;;49.23;25.80;;;-2.00;99.90;;;;;;10464780;28;20227;-83
2022/12/03 03:42:45;;;;;;;46.23;21.17;;;-2.10;1.00;;;;;;10451154;28;20204;-92
2022/12/03 03:48:06;;;;;;;43.07;21.40;;;-2.20;99.90;;;;;;10450841;28;20203;-91
2022/12/03 03:53:29;;;;;;;48.83;22.70;;;-2.10;99.90;;;;;;10453047;28;20187;-91
2022/12/03 03:58:50;;;;;;;49.67;22.67;;;-2.10;99.90;;;;;;10422890;28;20236;-86
2022/12/03 04:04:19;;;;;;;44.83;22.73;;;-2.00;99.90;;;;;;10419076;28;20191;-80
2022/12/03 04:09:40;;;;;;;55.20;24.13;;;-2.00;99.90;;;;;;10492605;28;20204;-80
2022/12/03 04:15:01;;;;;;;47.10;23.23;;;-2.10;1.00;;;;;;10476132;28;20219;-80
2022/12/03 04:20:23;;;;;;;56.13;23.53;;;-2.10;99.90;;;;;;10475847;28;20227;-80
2022/12/03 04:37:23;;;;;;;56.73;25.40;;;-2.30;1.00;;;;;;10272957;28;20233;-87
2022/12/03 04:42:44;;;;;;;58.40;25.10;;;-2.30;54.50;;;;;;10285794;28;20447;-81
2022/12/03 04:48:05;;;;;;;65.63;27.63;;;-2.40;99.90;;;;;;10299463;28;20229;-88
2022/12/03 04:53:27;;;;;;;66.27;30.40;;;-2.50;99.90;;;;;;10313747;28;20206;-91
2022/12/03 04:58:48;;;;;;;63.97;28.77;;;-2.50;99.90;;;;;;10268881;28;20314;-93
2022/12/03 05:04:10;;;;;;;61.67;26.67;;;-2.40;99.90;;;;;;10283456;28;20327;-90
2022/12/03 05:09:31;;;;;;;68.10;31.40;;;-2.40;99.90;;;;;;10489257;28;20231;-91
2022/12/03 05:14:53;;;;;;;77.53;34.23;;;-2.40;99.90;;;;;;10475295;28;20212;-86
2022/12/03 05:25:54;;;;;;;75.60;33.17;;;-2.60;1.00;;;;;;10492804;28;20234;-84
2022/12/03 05:31:16;;;;;;;69.87;31.63;;;-2.50;1.00;;;;;;10450104;28;20224;-91
2022/12/03 05:36:37;;;;;;;77.60;34.20;;;-2.40;1.00;;;;;;10408702;28;20220;-90
2022/12/03 05:47:38;;;;;;;77.80;33.80;;;-2.30;99.90;;;;;;10461316;28;20203;-89
2022/12/03 05:53:20;;;;;;;67.07;32.27;;;-2.30;1.00;;;;;;10469464;28;20494;-93
2022/12/03 05:58:41;;;;;;;73.93;34.50;;;-2.20;99.90;;;;;;10433207;28;20236;-92
2022/12/03 06:04:02;;;;;;;74.43;32.50;;;-2.40;1.00;;;;;;10437329;28;20191;-87
2022/12/03 06:09:23;;;;;;;83.30;35.47;;;-2.40;1.00;;;;;;10488445;28;20212;-92
2022/12/03 06:14:44;;;;;;;75.37;34.30;;;-2.30;1.00;;;;;;10491198;28;20196;-86
2022/12/03 06:20:07;;;;;;;82.33;32.80;;;-2.40;1.00;;;;;;10487356;28;20246;-81
2022/12/03 06:25:28;;;;;;;69.47;33.53;;;-2.40;1.00;;;;;;10468314;28;20472;-84
2022/12/03 06:30:49;;;;;;;69.23;31.60;;;-2.40;1.00;;;;;;10447344;28;20200;-87
2022/12/03 06:36:11;;;;;;;74.17;33.90;;;-2.50;1.00;;;;;;10468857;28;20195;-82
2022/12/03 06:41:32;;;;;;;66.30;32.60;;;-2.30;1.00;;;;;;10453143;28;20390;-80
2022/12/03 06:46:54;;;;;;;77.10;32.00;;;-2.30;1.00;;;;;;10438800;28;20219;-89
2022/12/03 06:52:15;;;;;;;71.17;32.97;;;-2.30;1.00;;;;;;10455751;28;20200;-84
2022/12/03 06:57:36;;;;;;;71.80;33.40;;;-2.30;1.00;;;;;;10438807;28;20327;-82
2022/12/03 07:02:58;;;;;;;69.83;31.80;;;-2.30;1.00;;;;;;10452796;28;20284;-84
2022/12/03 07:08:19;;;;;;;65.77;31.17;;;-2.30;1.00;;;;;;10478344;28;20270;-84
2022/12/03 07:13:40;;;;;;;72.40;31.03;;;-2.30;1.00;;;;;;10493945;28;20253;-85
2022/12/03 07:19:03;;;;;;;72.93;32.10;;;-2.40;1.00;;;;;;10493419;28;20242;-89
2022/12/03 07:24:24;;;;;;;81.80;35.33;;;-2.30;1.00;;;;;;10496492;28;20299;-87
2022/12/03 07:29:45;;;;;;;67.60;31.67;;;-2.30;1.00;;;;;;10431760;28;20213;-80
2022/12/03 07:35:07;;;;;;;78.97;35.97;;;-2.20;1.00;;;;;;10447593;28;20216;-81
2022/12/03 07:40:29;;;;;;;83.07;36.53;;;-2.20;1.00;;;;;;10440295;28;20257;-79
2022/12/03 07:45:50;;;;;;;69.07;32.93;;;-2.10;1.00;;;;;;10486220;28;20569;-87
2022/12/03 07:51:11;;;;;;;73.67;34.03;;;-2.20;1.00;;;;;;10464825;28;20199;-87
2022/12/03 07:56:35;;;;;;;71.47;33.00;;;-2.20;1.00;;;;;;10437000;28;20216;-91
2022/12/03 08:01:56;;;;;;;69.67;33.73;;;-2.10;1.00;;;;;;10450058;28;20203;-80
2022/12/03 08:07:17;;;;;;;84.90;40.00;;;-2.00;1.00;;;;;;10494435;28;20202;-84
2022/12/03 08:12:39;;;;;;;70.90;32.90;;;-2.00;1.00;;;;;;10507503;28;20237;-82
2022/12/03 08:18:03;;;;;;;87.60;38.80;;;-2.00;1.00;;;;;;10490159;28;20420;-89
2022/12/03 08:23:25;;;;;;;69.40;32.53;;;-2.00;1.00;;;;;;10491779;28;20229;-87
2022/12/03 08:28:46;;;;;;;76.07;36.90;;;-2.00;1.00;;;;;;10447980;28;20200;-81
2022/12/03 08:34:19;;;;;;;78.70;34.50;;;-2.00;1.00;;;;;;10455606;28;20220;-87
2022/12/03 08:39:48;;;;;;;70.33;31.57;;;-2.00;1.00;;;;;;10469520;28;20534;-88
2022/12/03 08:45:28;;;;;;;90.60;37.97;;;-2.00;1.00;;;;;;10452338;28;20217;-86
2022/12/03 08:50:50;;;;;;;83.70;37.63;;;-2.10;1.00;;;;;;10454528;28;20201;-92
2022/12/03 08:56:19;;;;;;;89.60;42.10;;;-2.00;1.00;;;;;;10440311;28;20204;-84
2022/12/03 09:01:43;;;;;;;73.10;31.83;;;-1.90;1.00;;;;;;10450926;28;20201;-90
2022/12/03 09:07:04;;;;;;;77.20;31.13;;;-1.90;1.00;;;;;;10507606;28;20211;-84
2022/12/03 09:12:25;;;;;;;71.33;32.63;;;-2.00;1.00;;;;;;10508592;28;20283;-85
2022/12/03 09:17:47;;;;;;;86.27;36.80;;;-1.90;1.00;;;;;;10491257;28;20227;-92
2022/12/03 09:23:08;;;;;;;69.73;30.27;;;-1.80;1.00;;;;;;10490931;28;20502;-83
2022/12/03 09:28:30;;;;;;;77.40;33.20;;;-1.80;1.00;;;;;;10420482;28;20200;-81
2022/12/03 09:33:51;;;;;;;69.93;31.63;;;-1.80;1.00;;;;;;10436255;28;20200;-81
2022/12/03 09:39:13;;;;;;;61.17;30.10;;;-1.70;1.00;;;;;;10468138;28;20518;-82
2022/12/03 09:44:36;;;;;;;66.87;28.87;;;-1.70;1.00;;;;;;10470186;28;20379;-83
2022/12/03 09:49:57;;;;;;;75.57;33.63;;;-1.70;1.00;;;;;;10448874;28;20218;-81
2022/12/03 09:55:22;;;;;;;64.50;30.90;;;-1.70;1.00;;;;;;10450543;28;20242;-82
2022/12/03 10:00:49;;;;;;;64.17;30.57;;;-1.80;1.00;;;;;;10447030;28;20231;-82
2022/12/03 10:06:15;;;;;;;63.80;30.60;;;-1.70;1.00;;;;;;10471364;28;20497;-90
2022/12/03 10:11:37;;;;;;;64.70;30.67;;;-1.70;1.00;;;;;;10499871;28;20196;-82
2022/12/03 10:16:58;;;;;;;69.50;31.63;;;-1.70;1.00;;;;;;10512884;28;20397;-82
2022/12/03 10:22:19;;;;;;;68.63;34.03;;;-1.60;1.00;;;;;;10481541;28;20258;-86
2022/12/03 10:27:41;;;;;;;56.57;28.60;;;-1.40;1.00;;;;;;10474918;28;20194;-88
2022/12/03 10:33:12;;;;;;;62.90;30.77;;;-1.50;1.00;;;;;;10457378;28;20243;-86
2022/12/03 10:38:35;;;;;;;80.00;35.87;;;-1.40;1.00;;;;;;10453359;28;20232;-83
2022/12/03 10:44:15;;;;;;;76.20;34.10;;;-1.40;99.90;;;;;;10429738;28;20200;-85
2022/12/03 10:49:37;;;;;;;72.03;33.70;;;-1.40;1.00;;;;;;10428597;28;20249;-81
2022/12/03 10:54:58;;;;;;;62.00;29.77;;;-1.40;1.00;;;;;;10428794;28;20538;-85
2022/12/03 11:00:20;;;;;;;65.50;31.37;;;-1.40;1.00;;;;;;10463612;28;20227;-85
2022/12/03 11:05:41;;;;;;;61.33;30.00;;;-1.40;1.00;;;;;;10458697;28;20191;-87
2022/12/03 11:11:06;;;;;;;57.80;29.80;;;-1.30;1.00;;;;;;10481848;28;20207;-87
2022/12/03 11:16:39;;;;;;;75.47;36.57;;;-1.30;1.00;;;;;;10495002;28;20203;-81
2022/12/03 11:22:04;;;;;;;70.90;32.17;;;-1.20;1.00;;;;;;10480609;28;20243;-81
2022/12/03 11:27:25;;;;;;;66.37;33.13;;;-1.20;1.00;;;;;;10486336;28;20204;-81
2022/12/03 11:32:46;;;;;;;65.90;31.63;;;-1.10;99.90;;;;;;10472776;28;20206;-82
2022/12/03 11:38:39;;;;;;;66.43;33.57;;;-1.10;99.90;;;;;;10450748;28;20236;-91
2022/12/03 11:44:28;;;;;;;62.37;31.40;;;-1.00;99.90;;;;;;10437210;28;20213;-81
2022/12/03 11:49:49;;;;;;;96.93;42.93;;;-1.00;99.90;;;;;;10436530;28;20207;-80
2022/12/03 11:55:39;;;;;;;115.73;46.83;;;-0.90;1.00;;;;;;10449987;28;20276;-81
2022/12/03 12:01:03;;;;;;;83.73;40.43;;;-0.80;99.90;;;;;;10435981;28;20260;-87
2022/12/03 12:06:24;;;;;;;66.70;34.93;;;-0.80;99.90;;;;;;10473585;28;20193;-80
2022/12/03 12:11:47;;;;;;;66.23;31.77;;;-0.80;99.90;;;;;;10492581;28;20357;-82
2022/12/03 12:17:34;;;;;;;65.13;31.70;;;-0.80;99.90;;;;;;10500405;28;20265;-83
2022/12/03 12:23:20;;;;;;;58.33;28.17;;;-0.80;99.90;;;;;;10515766;28;20217;-82
2022/12/03 12:28:43;;;;;;;62.07;31.87;;;-0.90;99.90;;;;;;10488214;28;20204;-81
2022/12/03 12:34:11;;;;;;;69.53;34.30;;;-0.80;99.90;;;;;;10478021;28;20199;-81
2022/12/03 12:39:53;;;;;;;64.63;32.67;;;-0.90;99.90;;;;;;10317620;28;20285;-83
2022/12/03 12:45:23;;;;;;;74.70;36.53;;;-0.90;99.90;;;;;;10299543;28;20281;-82
2022/12/03 12:50:47;;;;;;;67.43;33.13;;;-0.90;81.80;;;;;;10300312;28;20222;-81
2022/12/03 12:56:30;;;;;;;67.07;33.73;;;-1.00;99.90;;;;;;10318012;28;20262;-81
2022/12/03 13:01:51;;;;;;;66.30;32.60;;;-0.90;99.90;;;;;;10309488;28;20211;-81
2022/12/03 13:07:16;;;;;;;59.03;30.47;;;-0.90;99.90;;;;;;10309518;28;20218;-82
2022/12/03 13:12:38;;;;;;;64.43;31.90;;;-0.80;99.90;;;;;;10296507;28;20448;-82
2022/12/03 13:17:59;;;;;;;73.53;36.37;;;-0.90;99.90;;;;;;10425648;28;20238;-88
2022/12/03 13:23:24;;;;;;;65.57;33.50;;;-0.90;99.90;;;;;;10418038;28;20245;-81
2022/12/03 13:29:21;;;;;;;71.00;33.70;;;-0.90;99.90;;;;;;10423028;28;20245;-82
2022/12/03 13:35:25;;;;;;;73.50;35.77;;;-0.90;99.90;;;;;;10436975;28;20356;-85
2022/12/03 13:41:01;;;;;;;66.90;33.60;;;-1.00;99.90;;;;;;10436503;28;20236;-82
2022/12/03 13:46:34;;;;;;;74.70;35.43;;;-1.00;99.90;;;;;;10473997;28;20225;-81
2022/12/03 13:51:59;;;;;;;77.20;37.23;;;-0.90;99.90;;;;;;10466216;28;20205;-82
2022/12/03 13:57:22;;;;;;;74.67;36.00;;;-0.80;99.90;;;;;;10461662;28;20226;-81
2022/12/03 14:02:44;;;;;;;72.40;37.50;;;-0.80;99.90;;;;;;10463790;28;20225;-82
2022/12/03 14:08:05;;;;;;;71.00;37.40;;;-0.80;99.90;;;;;;10496984;28;20242;-82
2022/12/03 14:13:27;;;;;;;81.57;38.40;;;-0.80;1.00;;;;;;10498106;28;20195;-82
2022/12/03 14:18:49;;;;;;;79.00;39.43;;;-1.00;99.90;;;;;;10485484;28;20449;-83
2022/12/03 14:24:10;;;;;;;105.30;44.67;;;-1.00;99.90;;;;;;10501127;28;20262;-90
2022/12/03 14:29:32;;;;;;;87.53;42.50;;;-1.10;99.90;;;;;;10428486;28;20232;-83
2022/12/03 14:34:53;;;;;;;88.33;41.67;;;-1.10;99.90;;;;;;10431417;28;20196;-82
2022/12/03 14:40:14;;;;;;;96.27;44.33;;;-1.10;99.90;;;;;;10438939;28;20225;-83
2022/12/03 14:45:40;;;;;;;95.47;45.03;;;-1.20;1.00;;;;;;10469660;28;20215;-82
2022/12/03 14:51:02;;;;;;;115.90;49.83;;;-1.20;1.00;;;;;;10437790;28;20261;-84
2022/12/03 14:56:23;;;;;;;109.00;49.57;;;-1.20;99.90;;;;;;10451963;28;20246;-82
2022/12/03 15:01:44;;;;;;;150.17;72.87;;;-1.20;99.90;;;;;;10468514;28;20224;-82
2022/12/03 15:07:06;;;;;;;145.47;71.47;;;-1.20;1.00;;;;;;10481155;28;20212;-82
2022/12/03 15:12:28;;;;;;;89.70;44.10;;;-1.30;1.00;;;;;;10492847;28;20522;-88
2022/12/03 15:17:50;;;;;;;92.97;45.37;;;-1.30;99.90;;;;;;10492766;28;20281;-82
2022/12/03 15:23:11;;;;;;;134.70;63.50;;;-1.30;1.00;;;;;;10506805;28;20239;-81
2022/12/03 15:28:34;;;;;;;149.70;85.53;;;-1.30;1.00;;;;;;10493501;28;20199;-82
2022/12/03 15:33:55;;;;;;;520.90;231.40;;;-1.40;1.00;;;;;;10453397;28;20291;-82
2022/12/03 15:39:17;;;;;;;1210.67;507.70;;;-1.30;1.00;;;;;;10487471;28;20226;-82
2022/12/03 15:44:38;;;;;;;1264.33;569.40;;;-1.30;1.00;;;;;;10451388;28;20218;-83
2022/12/03 15:49:59;;;;;;;658.67;359.47;;;-1.30;1.00;;;;;;10456995;28;20197;-82
2022/12/03 15:55:21;;;;;;;300.60;168.43;;;-1.30;1.00;;;;;;10450595;28;20205;-92
2022/12/03 16:00:42;;;;;;;130.57;66.03;;;-1.30;1.00;;;;;;10449848;28;20271;-81
2022/12/03 16:06:03;;;;;;;100.37;50.00;;;-1.30;1.00;;;;;;10473204;28;20376;-81
2022/12/03 16:11:25;;;;;;;97.50;45.40;;;-1.30;1.00;;;;;;10492013;28;20201;-87
2022/12/03 16:16:46;;;;;;;92.43;43.87;;;-1.40;1.00;;;;;;10476743;28;20266;-82
2022/12/03 16:22:07;;;;;;;93.70;44.40;;;-1.30;1.00;;;;;;10504158;28;20241;-82
2022/12/03 16:27:29;;;;;;;569.03;287.33;;;-1.20;1.00;;;;;;10468592;28;20388;-83
2022/12/03 16:32:50;;;;;;;294.80;169.60;;;-1.20;1.00;;;;;;10470660;28;20196;-83
2022/12/03 16:38:11;;;;;;;161.10;96.57;;;-1.20;1.00;;;;;;10434867;28;20448;-82
2022/12/03 16:43:37;;;;;;;97.27;51.07;;;-1.30;1.00;;;;;;10448455;28;20219;-82
2022/12/03 16:48:58;;;;;;;88.80;45.70;;;-1.30;1.00;;;;;;10449129;28;20469;-82
2022/12/03 16:54:20;;;;;;;93.23;44.00;;;-1.30;1.00;;;;;;10434653;28;20197;-85
2022/12/03 16:59:41;;;;;;;94.07;43.93;;;-1.30;1.00;;;;;;10421812;28;20300;-81
2022/12/03 17:05:04;;;;;;;89.50;42.30;;;-1.30;1.00;;;;;;10431431;28;20188;-82
2022/12/03 17:10:25;;;;;;;95.53;45.23;;;-1.30;1.00;;;;;;10489031;28;20372;-82
2022/12/03 17:15:46;;;;;;;96.90;44.90;;;-1.30;1.00;;;;;;10478591;28;20196;-81
2022/12/03 17:21:07;;;;;;;94.63;43.57;;;-1.40;1.00;;;;;;10490895;28;20267;-88
2022/12/03 17:26:29;;;;;;;109.50;47.23;;;-1.40;1.00;;;;;;10439460;28;20233;-82
2022/12/03 17:31:50;;;;;;;105.27;49.67;;;-1.30;1.00;;;;;;10412164;28;20214;-88
2022/12/03 17:37:11;;;;;;;106.17;51.53;;;-1.30;1.00;;;;;;10425409;28;20190;-82
2022/12/03 17:42:33;;;;;;;167.30;66.90;;;-1.30;1.00;;;;;;10409430;28;20209;-89
2022/12/03 17:47:54;;;;;;;105.17;49.50;;;-1.30;1.00;;;;;;10423342;28;20422;-82
2022/12/03 17:53:17;;;;;;;110.60;49.43;;;-1.30;1.00;;;;;;10423263;28;20188;-86
2022/12/03 17:58:39;;;;;;;166.53;61.50;;;-1.30;1.00;;;;;;10423148;28;20233;-84
2022/12/03 18:04:00;;;;;;;131.47;58.63;;;-1.30;1.00;;;;;;10426040;28;20196;-86
2022/12/03 18:09:21;;;;;;;103.03;47.70;;;-1.30;1.00;;;;;;10449739;28;20498;-84
2022/12/03 18:14:42;;;;;;;105.73;47.73;;;-1.30;1.00;;;;;;10450711;28;20198;-82
2022/12/03 18:20:05;;;;;;;103.63;47.20;;;-1.30;1.00;;;;;;10463931;28;20300;-83
2022/12/03 18:25:27;;;;;;;113.53;51.20;;;-1.30;1.00;;;;;;10444269;28;20244;-83
2022/12/03 18:30:48;;;;;;;115.57;50.03;;;-1.40;1.00;;;;;;10430953;28;20505;-90
2022/12/03 18:36:24;;;;;;;101.83;50.13;;;-1.40;1.00;;;;;;10427482;28;20268;-88
2022/12/03 18:41:46;;;;;;;106.50;52.13;;;-1.40;1.00;;;;;;10415910;28;20644;-84
2022/12/03 18:47:18;;;;;;;115.13;51.03;;;-1.30;1.00;;;;;;10443698;28;20426;-87
2022/12/03 18:52:40;;;;;;;101.03;47.43;;;-1.30;1.00;;;;;;10415751;28;20225;-92
2022/12/03 18:58:01;;;;;;;113.00;51.57;;;-1.30;1.00;;;;;;10429290;28;20474;-91
2022/12/03 19:03:22;;;;;;;104.93;50.27;;;-1.20;1.00;;;;;;10428385;28;20203;-88
2022/12/03 19:08:43;;;;;;;105.53;49.30;;;-1.20;1.00;;;;;;10414972;28;20222;-85
2022/12/03 19:14:05;;;;;;;100.53;46.90;;;-1.20;1.00;;;;;;10387784;28;20205;-88
2022/12/03 19:19:26;;;;;;;101.27;49.17;;;-1.20;1.00;;;;;;10401669;28;20229;-87
2022/12/03 19:24:47;;;;;;;101.93;48.17;;;-1.20;1.00;;;;;;10374604;28;20548;-83
2022/12/03 19:30:09;;;;;;;104.10;49.90;;;-1.20;1.00;;;;;;10403379;28;20411;-84
2022/12/03 19:35:31;;;;;;;92.40;47.10;;;-1.20;1.00;;;;;;10409942;28;20198;-84
2022/12/03 19:41:07;;;;;;;96.67;45.13;;;-1.30;1.00;;;;;;10413252;28;20270;-83
2022/12/03 19:46:29;;;;;;;92.00;43.57;;;-1.20;1.00;;;;;;10427192;28;20387;-86
2022/12/03 19:51:51;;;;;;;95.80;46.83;;;-1.20;1.00;;;;;;10411722;28;20505;-82
2022/12/03 19:57:12;;;;;;;94.77;46.17;;;-1.20;1.00;;;;;;10425936;28;20194;-81
2022/12/03 20:02:35;;;;;;;87.30;42.97;;;-1.20;1.00;;;;;;10411614;28;20279;-82
2022/12/03 20:07:57;;;;;;;82.80;42.50;;;-1.20;1.00;;;;;;10461100;28;20192;-89
2022/12/03 20:13:18;;;;;;;85.27;42.60;;;-1.20;1.00;;;;;;10480848;28;20200;-82
2022/12/03 20:18:41;;;;;;;92.83;46.43;;;-1.20;1.00;;;;;;10465912;28;20535;-82
2022/12/03 20:24:03;;;;;;;92.10;46.77;;;-1.20;1.00;;;;;;10500705;28;20257;-83
2022/12/03 20:29:24;;;;;;;103.93;51.97;;;-1.10;1.00;;;;;;10428247;28;20393;-82
2022/12/03 20:34:48;;;;;;;96.90;49.37;;;-1.10;1.00;;;;;;10439369;28;20215;-83
2022/12/03 20:40:09;;;;;;;98.33;50.17;;;-1.10;1.00;;;;;;10434741;28;20310;-83
2022/12/03 20:45:31;;;;;;;85.50;46.03;;;-1.10;1.00;;;;;;10434849;28;20196;-84
2022/12/03 20:50:52;;;;;;;99.63;47.50;;;-1.10;1.00;;;;;;10450254;28;20220;-82
2022/12/03 20:56:19;;;;;;;98.30;50.27;;;-1.10;1.00;;;;;;10434271;28;20196;-84
2022/12/03 21:01:42;;;;;;;106.30;50.33;;;-1.10;1.00;;;;;;10406557;28;20284;-83
2022/12/03 21:07:03;;;;;;;97.07;48.50;;;-1.10;1.00;;;;;;10463536;28;20196;-84
2022/12/03 21:12:25;;;;;;;90.07;47.23;;;-1.10;1.00;;;;;;10488710;28;20196;-83
2022/12/03 21:17:47;;;;;;;125.17;55.10;;;-1.10;1.00;;;;;;10491324;28;20223;-82
2022/12/03 21:23:08;;;;;;;99.83;50.10;;;-1.00;1.00;;;;;;10496356;28;20305;-82
2022/12/03 21:28:30;;;;;;;87.13;45.23;;;-1.00;1.00;;;;;;10495494;28;20201;-82
2022/12/03 21:33:57;;;;;;;97.63;48.30;;;-1.00;1.00;;;;;;10474023;28;20201;-90
2022/12/03 21:39:18;;;;;;;100.67;48.40;;;-1.10;1.00;;;;;;10441491;28;20235;-82
2022/12/03 21:44:40;;;;;;;98.70;50.03;;;-1.10;1.00;;;;;;10408647;28;20199;-82
2022/12/03 21:50:02;;;;;;;109.53;49.63;;;-1.00;1.00;;;;;;10404073;28;20206;-83
2022/12/03 21:55:24;;;;;;;100.97;45.13;;;-1.00;1.00;;;;;;10429761;28;20195;-88
2022/12/03 22:00:46;;;;;;;90.47;45.33;;;-1.00;1.00;;;;;;10455763;28;20223;-83
2022/12/03 22:06:08;;;;;;;94.80;45.80;;;-1.00;1.00;;;;;;10457965;28;20197;-82
2022/12/03 22:11:29;;;;;;;88.83;45.03;;;-1.10;1.00;;;;;;10487002;28;20217;-81
2022/12/03 22:16:51;;;;;;;105.87;48.97;;;-1.00;1.00;;;;;;10467542;28;20187;-81
2022/12/03 22:22:12;;;;;;;90.00;44.83;;;-1.10;1.00;;;;;;10462220;28;20252;-83
2022/12/03 22:27:34;;;;;;;103.60;48.37;;;-1.00;1.00;;;;;;10470440;28;20211;-82
2022/12/03 22:32:55;;;;;;;94.83;48.37;;;-1.00;1.00;;;;;;10439677;28;20208;-84
2022/12/03 22:38:16;;;;;;;99.97;47.00;;;-0.90;1.00;;;;;;10467372;28;20206;-83
2022/12/03 22:43:38;;;;;;;93.20;45.70;;;-0.90;1.00;;;;;;10453276;28;20259;-85
2022/12/03 22:48:59;;;;;;;101.20;47.43;;;-1.00;1.00;;;;;;10439386;28;20198;-84
2022/12/03 22:54:25;;;;;;;102.60;45.67;;;-1.00;1.00;;;;;;10453781;28;20213;-85
2022/12/03 22:59:46;;;;;;;100.33;46.63;;;-1.00;1.00;;;;;;10451965;28;20565;-83
2022/12/03 23:05:08;;;;;;;94.43;47.10;;;-1.00;1.00;;;;;;10452652;28;20201;-84
2022/12/03 23:10:32;;;;;;;92.70;45.43;;;-1.00;1.00;;;;;;10439354;28;20218;-82
2022/12/03 23:15:54;;;;;;;93.07;44.83;;;-1.00;1.00;;;;;;10450983;28;20553;-87
2022/12/03 23:21:24;;;;;;;97.33;45.77;;;-1.00;1.00;;;;;;10438042;28;20285;-84
2022/12/03 23:26:48;;;;;;;104.50;46.47;;;-1.00;1.00;;;;;;10451673;28;20208;-85
2022/12/03 23:32:09;;;;;;;103.23;48.87;;;-0.90;1.00;;;;;;10451149;28;20199;-88
2022/12/03 23:37:31;;;;;;;99.67;47.17;;;-0.90;1.00;;;;;;10468185;28;20260;-86
2022/12/03 23:42:52;;;;;;;101.67;45.53;;;-0.90;1.00;;;;;;10450901;28;20278;-82
2022/12/03 23:48:13;;;;;;;113.20;48.93;;;-0.90;1.00;;;;;;10467680;28;20196;-88
2022/12/03 23:53:36;;;;;;;112.23;49.53;;;-0.70;1.00;;;;;;10450706;28;20266;-89
2022/12/03 23:58:57;;;;;;;113.40;48.63;;;-0.80;1.00;;;;;;10449641;28;20233;-84
